Startpagina
METAR-TAF:

METAR-TAF

Vliegvelden :

Vlissingen, Nederland

breedte: 51-27N, lengte: 3-36E, hoogte: 10 m

Actueel weer

Dit bericht is 25 minuten geleden gemaakt, om 21:55 UTC
Wind 5 kt uit het noorden, variërend tussen het noordwesten en het noordoosten
Temperatuur 14°C
Vochtigheid 88%
Druk 1024 hPa
Zicht 10 km of meer

METAR: EHFS 242155Z AUTO 36005KT 320V040 9999 NSC 14/12 Q1024 W///H///

Tijdstip: 00:20 (22:20 UTC)


TAF: ontbreekt

Waarnemingen en weersverwachtingen van meer dan 4000 vliegvelden (METAR en TAF).

De beschikbare stations zijn de gele en rode punten op de kaart.

Ga met uw muis naar het station om de naam te zien.

Klik dan om waarnemingen en weersverwachtingen te zien.

kaart wijzigen: klik op de groene knoppen met een zwart kruis om in te zoomen, op de groene knop met een streepje om uit te zoomen of op de groene pijlen voor aangrenzende kaarten.


METAR-TAF: